Portada
METAR-TAF:

METAR-TAF

Aeroports :

Franceville, Gabon

latitud: 01-39S, longitud: 013-26E, altitud: 441 m

Observació

L'informe es va fer fa 1 hora i 8 minuts, a les 11:00 UTC
Vent 4 kt amb direcció variable
Temperatura 29°C
Humitat 70%
Pressió 1013 hPa
Visibilitat 10 km o més
Núvols disperses a una alçada de 1200 ft

METAR: FOON 121100Z VRB04KT 9999 SCT012 29/23 Q1013

Hora: 13:08 (12:08 UTC)


TAF: manca

Observacions i pronòstics meteorològics de més de 4000 aeroports (METAR i TAF).

Les estacions disponibles són els punts grocs i vermells al mapa.

Posi el ratolí al punt desitjat per veure el nom de l'estació.

Feu clic per veure les observacions i els pronòstics meteorològics.

Per canviar el mapa: feu clic els botons verds amb una creu de color negre per apropar; al botó verd amb un guió per allunyar la imatge; o en les fletxes verdes per a mapes adjacents.


METAR-TAF: